Time;durP1;ratioP1;P1;durP2;ratioP2;P2;SDS_P1;SDS_P2;PMS_P1;PMS_P2;Temp;Humidity;BMP_temperature;BMP_pressure;BME280_temperature;BME280_humidity;BME280_pressure;Samples;Min_cycle;Max_cycle;Signal;HPM_P1;HPM_P2
2022/08/25 00:00:40;;;;;;;14.48;11.40;;;;;;;;;;5024827;28;20087;-75
2022/08/25 00:03:05;;;;;;;13.95;11.70;;;;;;;;;;5025729;28;20175;-75
2022/08/25 00:05:31;;;;;;;14.18;11.55;;;;;;;;;;5023309;28;20124;-75
2022/08/25 00:07:56;;;;;;;13.85;12.20;;;;;;;;;;5015987;28;20053;-79
2022/08/25 00:10:21;;;;;;;14.85;10.45;;;;;;;;;;5023230;28;20456;-80
2022/08/25 00:12:47;;;;;;;14.32;11.32;;;;;;;;;;5018211;28;20037;-77
2022/08/25 00:15:12;;;;;;;14.68;12.25;;;;;;;;;;5016575;28;20481;-75
2022/08/25 00:17:38;;;;;;;13.50;11.95;;;;;;;;;;5025625;28;20034;-76
2022/08/25 00:20:04;;;;;;;14.20;12.57;;;;;;;;;;5025021;28;20053;-79
2022/08/25 00:22:29;;;;;;;15.88;12.02;;;;;;;;;;5020607;28;20099;-75
2022/08/25 00:24:54;;;;;;;13.98;12.45;;;;;;;;;;5018630;28;20037;-75
2022/08/25 00:27:20;;;;;;;14.10;10.82;;;;;;;;;;5024863;28;20440;-75
2022/08/25 00:29:46;;;;;;;12.48;11.18;;;;;;;;;;5024416;28;20028;-78
2022/08/25 00:32:12;;;;;;;12.18;10.90;;;;;;;;;;5014743;28;20025;-73
2022/08/25 00:34:37;;;;;;;11.50;10.38;;;;;;;;;;5012196;28;20117;-75
2022/08/25 00:37:05;;;;;;;12.88;11.57;;;;;;;;;;5023128;28;20108;-78
2022/08/25 00:39:31;;;;;;;14.40;11.25;;;;;;;;;;4994713;28;20449;-75
2022/08/25 00:41:57;;;;;;;12.32;11.10;;;;;;;;;;5010121;28;20057;-74
2022/08/25 00:44:22;;;;;;;14.52;10.55;;;;;;;;;;5011227;28;20337;-75
2022/08/25 00:46:49;;;;;;;12.45;11.30;;;;;;;;;;5016132;28;20365;-74
2022/08/25 00:49:19;;;;;;;16.73;11.02;;;;;;;;;;5011667;28;20450;-78
2022/08/25 00:51:57;;;;;;;11.73;10.43;;;;;;;;;;5012298;28;20029;-75
2022/08/25 00:54:26;;;;;;;12.25;10.18;;;;;;;;;;5014068;28;20021;-76
2022/08/25 00:56:51;;;;;;;14.48;11.02;;;;;;;;;;5022399;28;20053;-79
2022/08/25 00:59:21;;;;;;;13.02;11.35;;;;;;;;;;5025360;28;20475;-75
2022/08/25 01:01:47;;;;;;;14.88;11.30;;;;;;;;;;5024633;28;20083;-77
2022/08/25 01:04:13;;;;;;;13.65;11.15;;;;;;;;;;5004863;28;20034;-76
2022/08/25 01:06:40;;;;;;;14.82;11.75;;;;;;;;;;5024511;28;20044;-78
2022/08/25 01:09:06;;;;;;;20.05;11.68;;;;;;;;;;5015454;28;20029;-77
2022/08/25 01:11:33;;;;;;;13.63;11.43;;;;;;;;;;5020647;28;20037;-76
2022/08/25 01:14:02;;;;;;;16.35;10.93;;;;;;;;;;5016084;28;20025;-75
2022/08/25 01:16:28;;;;;;;13.20;10.38;;;;;;;;;;5023329;28;20056;-75
2022/08/25 01:18:55;;;;;;;16.75;10.85;;;;;;;;;;5023141;28;20448;-76
2022/08/25 01:21:22;;;;;;;15.05;10.25;;;;;;;;;;5020617;28;20364;-77
2022/08/25 01:23:48;;;;;;;15.68;11.38;;;;;;;;;;5023526;28;20022;-78
2022/08/25 01:26:16;;;;;;;14.10;10.45;;;;;;;;;;5014559;28;20029;-76
2022/08/25 01:29:19;;;;;;;16.70;10.68;;;;;;;;;;5022433;28;20103;-76
2022/08/25 01:31:28;;;;;;;15.95;11.55;;;;;;;;;;5025177;28;20041;-78
2022/08/25 01:33:54;;;;;;;15.65;11.57;;;;;;;;;;5016747;28;20080;-76
2022/08/25 01:36:20;;;;;;;17.02;11.32;;;;;;;;;;5021398;28;20022;-74
2022/08/25 01:38:46;;;;;;;13.93;11.27;;;;;;;;;;5021304;28;20030;-75
2022/08/25 01:41:11;;;;;;;12.48;10.75;;;;;;;;;;5024283;28;20417;-75
2022/08/25 01:43:37;;;;;;;15.68;11.20;;;;;;;;;;5017420;28;20057;-74
2022/08/25 01:46:03;;;;;;;19.50;10.57;;;;;;;;;;5023140;28;20026;-75
2022/08/25 01:48:28;;;;;;;14.80;10.98;;;;;;;;;;5024032;28;20029;-75
2022/08/25 01:50:53;;;;;;;18.33;11.80;;;;;;;;;;5022524;28;20041;-75
2022/08/25 01:53:19;;;;;;;13.60;11.02;;;;;;;;;;5022286;28;20022;-74
2022/08/25 01:55:50;;;;;;;14.45;12.15;;;;;;;;;;5014047;28;20033;-77
2022/08/25 01:58:20;;;;;;;16.05;11.18;;;;;;;;;;5027642;28;20017;-75
2022/08/25 02:00:49;;;;;;;16.13;12.18;;;;;;;;;;4992562;28;20033;-76
2022/08/25 02:03:16;;;;;;;11.82;10.73;;;;;;;;;;5005684;28;20021;-76
2022/08/25 02:05:42;;;;;;;13.70;11.25;;;;;;;;;;5022898;28;20164;-78
2022/08/25 02:08:07;;;;;;;15.07;10.48;;;;;;;;;;5024625;28;20128;-76
2022/08/25 02:10:32;;;;;;;15.77;11.02;;;;;;;;;;5023208;28;20041;-77
2022/08/25 02:12:58;;;;;;;12.88;10.65;;;;;;;;;;5023326;28;20032;-74
2022/08/25 02:15:23;;;;;;;14.27;10.57;;;;;;;;;;5010260;28;20029;-75
2022/08/25 02:17:49;;;;;;;14.50;11.95;;;;;;;;;;5021290;28;20452;-75
2022/08/25 02:20:14;;;;;;;13.32;10.10;;;;;;;;;;5021726;28;20572;-76
2022/08/25 02:22:39;;;;;;;15.60;11.50;;;;;;;;;;5021413;28;20057;-77
2022/08/25 02:25:05;;;;;;;11.35;9.43;;;;;;;;;;5014098;28;20082;-75
2022/08/25 02:27:30;;;;;;;15.48;10.70;;;;;;;;;;5023561;28;20168;-75
2022/08/25 02:29:55;;;;;;;13.82;10.55;;;;;;;;;;5014927;28;20022;-73
2022/08/25 02:32:21;;;;;;;13.57;10.02;;;;;;;;;;5017211;28;20087;-75
2022/08/25 02:34:46;;;;;;;13.95;10.82;;;;;;;;;;5018841;28;20026;-74
2022/08/25 02:37:12;;;;;;;12.57;10.07;;;;;;;;;;5020339;28;20037;-76
2022/08/25 02:39:38;;;;;;;15.05;11.18;;;;;;;;;;5023767;28;20024;-74
2022/08/25 02:42:05;;;;;;;15.45;11.07;;;;;;;;;;5022082;28;20049;-75
2022/08/25 02:44:30;;;;;;;15.18;10.05;;;;;;;;;;5021892;28;20109;-76
2022/08/25 02:46:56;;;;;;;17.48;11.18;;;;;;;;;;5012444;28;20032;-75
2022/08/25 02:49:21;;;;;;;14.20;12.25;;;;;;;;;;5022851;28;20034;-75
2022/08/25 02:51:46;;;;;;;17.50;13.10;;;;;;;;;;5025923;28;20042;-75
2022/08/25 02:54:12;;;;;;;23.35;16.23;;;;;;;;;;5019471;28;20025;-76
2022/08/25 02:56:37;;;;;;;23.77;15.38;;;;;;;;;;4993288;28;20112;-76
2022/08/25 02:59:03;;;;;;;19.02;15.25;;;;;;;;;;5023831;28;20047;-78
2022/08/25 03:01:29;;;;;;;17.60;14.95;;;;;;;;;;5010960;28;20033;-76
2022/08/25 03:03:55;;;;;;;17.63;15.10;;;;;;;;;;5024443;28;20036;-75
2022/08/25 03:06:22;;;;;;;17.30;14.02;;;;;;;;;;5018397;28;20034;-75
2022/08/25 03:08:47;;;;;;;15.57;13.80;;;;;;;;;;5020274;28;20093;-79
2022/08/25 03:11:12;;;;;;;16.30;13.73;;;;;;;;;;5026148;28;20073;-75
2022/08/25 03:13:38;;;;;;;14.68;12.85;;;;;;;;;;5025922;28;20026;-76
2022/08/25 03:16:04;;;;;;;15.10;13.50;;;;;;;;;;5015529;28;20389;-74
2022/08/25 03:18:30;;;;;;;14.68;13.18;;;;;;;;;;5005003;28;20330;-76
2022/08/25 03:20:55;;;;;;;14.15;12.35;;;;;;;;;;5027249;28;20040;-76
2022/08/25 03:23:21;;;;;;;18.05;11.82;;;;;;;;;;5028881;28;20055;-75
2022/08/25 03:28:31;;;;;;;11.95;10.35;;;;;;;;;;5026878;28;20113;-74
2022/08/25 03:30:59;;;;;;;12.25;10.25;;;;;;;;;;5021429;28;20090;-77
2022/08/25 03:33:24;;;;;;;16.63;11.60;;;;;;;;;;5017934;28;20041;-78
2022/08/25 03:35:50;;;;;;;16.42;12.82;;;;;;;;;;5027937;28;20136;-75
2022/08/25 03:38:15;;;;;;;15.07;12.27;;;;;;;;;;5027582;28;20025;-75
2022/08/25 03:40:41;;;;;;;13.88;12.45;;;;;;;;;;5025383;28;20520;-74
2022/08/25 03:43:06;;;;;;;16.58;12.55;;;;;;;;;;5023395;28;20046;-74
2022/08/25 03:45:32;;;;;;;16.50;11.35;;;;;;;;;;5023671;28;20436;-75
2022/08/25 03:47:57;;;;;;;15.25;10.68;;;;;;;;;;5014071;28;20048;-74
2022/08/25 03:50:23;;;;;;;14.35;10.95;;;;;;;;;;5024535;28;20037;-74
2022/08/25 03:52:52;;;;;;;14.82;10.32;;;;;;;;;;5025361;28;20060;-76
2022/08/25 03:55:18;;;;;;;12.82;10.77;;;;;;;;;;5025856;28;20104;-75
2022/08/25 03:57:44;;;;;;;14.80;10.60;;;;;;;;;;5024483;28;20104;-74
2022/08/25 04:00:11;;;;;;;14.75;10.50;;;;;;;;;;5008908;28;20083;-74
2022/08/25 04:02:37;;;;;;;15.90;13.48;;;;;;;;;;5012092;28;20124;-75
2022/08/25 04:05:03;;;;;;;15.85;13.15;;;;;;;;;;5010048;28;20117;-74
2022/08/25 04:07:28;;;;;;;14.68;12.95;;;;;;;;;;5010505;28;20084;-78
2022/08/25 04:09:55;;;;;;;17.77;14.15;;;;;;;;;;5010382;28;20448;-75
2022/08/25 04:12:20;;;;;;;19.00;13.82;;;;;;;;;;5010499;28;20029;-74
2022/08/25 04:14:46;;;;;;;15.15;13.40;;;;;;;;;;5011153;28;20037;-76
2022/08/25 04:17:11;;;;;;;17.45;15.70;;;;;;;;;;5014319;28;20471;-76
2022/08/25 04:19:37;;;;;;;19.15;14.63;;;;;;;;;;5015212;28;20036;-74
2022/08/25 04:22:02;;;;;;;16.33;14.52;;;;;;;;;;5024976;28;20041;-78
2022/08/25 04:24:28;;;;;;;17.55;14.32;;;;;;;;;;5015516;28;20552;-74
2022/08/25 04:26:53;;;;;;;16.38;13.80;;;;;;;;;;5020966;28;20033;-74
2022/08/25 04:29:20;;;;;;;18.80;15.35;;;;;;;;;;5022652;28;20037;-74
2022/08/25 04:31:46;;;;;;;16.98;14.23;;;;;;;;;;5023337;28;20044;-74
2022/08/25 04:34:12;;;;;;;16.77;13.57;;;;;;;;;;5022718;28;20029;-75
2022/08/25 04:36:37;;;;;;;18.35;13.48;;;;;;;;;;5022891;28;20086;-73
2022/08/25 04:39:03;;;;;;;17.38;12.88;;;;;;;;;;5023263;28;20507;-75
2022/08/25 04:41:30;;;;;;;17.08;13.77;;;;;;;;;;5025395;28;20057;-75
2022/08/25 04:43:56;;;;;;;16.40;13.68;;;;;;;;;;5020192;28;20033;-74
2022/08/25 04:46:23;;;;;;;19.13;11.75;;;;;;;;;;5012905;28;20044;-73
2022/08/25 04:48:50;;;;;;;16.90;11.38;;;;;;;;;;5019530;28;20097;-75
2022/08/25 04:51:17;;;;;;;18.17;11.85;;;;;;;;;;5021184;28;20083;-74
2022/08/25 04:53:43;;;;;;;13.82;11.93;;;;;;;;;;5022151;28;20018;-74
2022/08/25 04:56:10;;;;;;;13.00;11.35;;;;;;;;;;5021317;28;20449;-74
2022/08/25 04:58:36;;;;;;;13.95;11.73;;;;;;;;;;5023056;28;20076;-75
2022/08/25 05:01:05;;;;;;;16.40;11.85;;;;;;;;;;5022279;28;20445;-73
2022/08/25 05:03:30;;;;;;;15.70;12.63;;;;;;;;;;5023043;28;20025;-73
2022/08/25 05:05:56;;;;;;;13.40;11.77;;;;;;;;;;5023965;28;20037;-75
2022/08/25 05:08:21;;;;;;;17.63;13.35;;;;;;;;;;5021680;28;20025;-76
2022/08/25 05:10:47;;;;;;;16.45;13.35;;;;;;;;;;5022037;28;20025;-74
2022/08/25 05:13:12;;;;;;;16.00;14.15;;;;;;;;;;5022026;28;20037;-74
2022/08/25 05:15:49;;;;;;;19.10;13.95;;;;;;;;;;5021735;28;20030;-76
2022/08/25 05:18:15;;;;;;;15.38;13.88;;;;;;;;;;5021523;28;20882;-75
2022/08/25 05:20:41;;;;;;;17.92;13.23;;;;;;;;;;5020076;28;20436;-73
2022/08/25 05:23:07;;;;;;;17.08;13.10;;;;;;;;;;5021224;28;20037;-74
2022/08/25 05:25:32;;;;;;;17.95;13.30;;;;;;;;;;5023614;28;20427;-73
2022/08/25 05:27:58;;;;;;;17.63;12.65;;;;;;;;;;5022575;28;20026;-74
2022/08/25 05:30:23;;;;;;;15.77;13.57;;;;;;;;;;5020997;28;20028;-74
2022/08/25 05:32:48;;;;;;;15.88;13.93;;;;;;;;;;5022389;28;20028;-76
2022/08/25 05:35:15;;;;;;;18.85;13.23;;;;;;;;;;5022831;28;20032;-74
2022/08/25 05:37:40;;;;;;;14.50;12.95;;;;;;;;;;5021194;28;20036;-74
2022/08/25 05:40:07;;;;;;;19.23;13.40;;;;;;;;;;5021084;28;20045;-75
2022/08/25 05:42:32;;;;;;;14.32;12.70;;;;;;;;;;5020769;28;20537;-74
2022/08/25 05:44:57;;;;;;;15.43;12.93;;;;;;;;;;5020394;28;20112;-74
2022/08/25 05:47:23;;;;;;;14.80;13.35;;;;;;;;;;5005180;28;20104;-74
2022/08/25 05:49:48;;;;;;;14.95;13.43;;;;;;;;;;5021521;28;20032;-74
2022/08/25 05:52:14;;;;;;;15.98;13.30;;;;;;;;;;5021720;28;20035;-77
2022/08/25 05:54:39;;;;;;;21.33;15.05;;;;;;;;;;5021637;28;20024;-75
2022/08/25 05:57:05;;;;;;;16.27;14.60;;;;;;;;;;5021601;28;20344;-75
2022/08/25 05:59:31;;;;;;;16.45;14.77;;;;;;;;;;5023204;28;20035;-74
2022/08/25 06:04:40;;;;;;;17.40;15.05;;;;;;;;;;5020817;28;20048;-74
2022/08/25 06:07:06;;;;;;;18.25;15.52;;;;;;;;;;5023510;28;20022;-75
2022/08/25 06:09:31;;;;;;;17.55;14.38;;;;;;;;;;5021928;28;20030;-75
2022/08/25 06:11:57;;;;;;;22.23;15.77;;;;;;;;;;5022716;28;20029;-74
2022/08/25 06:14:23;;;;;;;16.50;14.48;;;;;;;;;;5019914;28;20032;-77
2022/08/25 06:16:50;;;;;;;18.17;16.10;;;;;;;;;;5022603;28;20120;-74
2022/08/25 06:19:16;;;;;;;17.45;15.65;;;;;;;;;;5020036;28;20087;-75
2022/08/25 06:21:41;;;;;;;19.50;15.45;;;;;;;;;;5021290;28;20480;-74
2022/08/25 06:24:08;;;;;;;19.30;15.55;;;;;;;;;;5022497;28;20037;-74
2022/08/25 06:26:34;;;;;;;18.38;16.35;;;;;;;;;;5021301;28;20078;-77
2022/08/25 06:28:59;;;;;;;19.83;15.68;;;;;;;;;;5020764;28;20029;-77
2022/08/25 06:31:24;;;;;;;22.02;17.65;;;;;;;;;;5022061;28;20028;-72
2022/08/25 06:33:51;;;;;;;19.73;16.10;;;;;;;;;;5020499;28;20022;-73
2022/08/25 06:36:17;;;;;;;17.95;14.35;;;;;;;;;;5021342;28;20026;-73
2022/08/25 06:38:43;;;;;;;18.25;13.85;;;;;;;;;;5023386;28;20029;-73
2022/08/25 06:41:09;;;;;;;23.92;18.10;;;;;;;;;;5024829;28;20076;-73
2022/08/25 06:43:35;;;;;;;22.38;15.90;;;;;;;;;;5026271;28;20437;-73
2022/08/25 06:46:11;;;;;;;19.17;16.77;;;;;;;;;;5025199;28;20075;-76
2022/08/25 06:48:36;;;;;;;17.98;15.90;;;;;;;;;;5016721;28;20025;-73
2022/08/25 06:51:06;;;;;;;19.55;15.15;;;;;;;;;;4993873;28;20036;-73
2022/08/25 06:53:31;;;;;;;17.30;14.90;;;;;;;;;;5012761;28;20037;-75
2022/08/25 06:55:57;;;;;;;17.50;15.60;;;;;;;;;;5011070;28;20033;-74
2022/08/25 06:58:23;;;;;;;17.55;14.32;;;;;;;;;;5012873;28;20025;-74
2022/08/25 07:00:48;;;;;;;19.02;13.88;;;;;;;;;;5012855;28;20043;-76
2022/08/25 07:03:14;;;;;;;18.88;14.02;;;;;;;;;;5014045;28;20368;-74
2022/08/25 07:05:39;;;;;;;14.52;12.88;;;;;;;;;;5012926;28;20056;-74
2022/08/25 07:08:05;;;;;;;15.80;14.10;;;;;;;;;;4994498;28;20460;-74
2022/08/25 07:10:30;;;;;;;16.13;12.85;;;;;;;;;;5010878;28;20436;-73
2022/08/25 07:12:56;;;;;;;18.88;13.00;;;;;;;;;;5012222;28;20025;-74
2022/08/25 07:15:21;;;;;;;16.75;12.82;;;;;;;;;;4995431;28;20025;-74
2022/08/25 07:17:47;;;;;;;14.13;12.60;;;;;;;;;;5013308;28;20025;-76
2022/08/25 07:20:13;;;;;;;16.55;13.63;;;;;;;;;;5012049;28;20441;-75
2022/08/25 07:22:39;;;;;;;17.73;13.73;;;;;;;;;;5011549;28;20041;-76
2022/08/25 07:25:05;;;;;;;16.35;13.68;;;;;;;;;;5019312;28;20040;-77
2022/08/25 07:27:30;;;;;;;17.27;14.50;;;;;;;;;;5012514;28;20373;-75
2022/08/25 07:29:56;;;;;;;20.17;13.10;;;;;;;;;;5013354;28;20022;-75
2022/08/25 07:32:21;;;;;;;21.13;14.45;;;;;;;;;;5012057;28;20036;-74
2022/08/25 07:37:30;;;;;;;18.38;13.65;;;;;;;;;;5011379;28;20091;-74
2022/08/25 07:39:58;;;;;;;20.52;12.57;;;;;;;;;;5011856;28;20021;-74
2022/08/25 07:42:26;;;;;;;19.98;12.48;;;;;;;;;;5012895;28;20049;-73
2022/08/25 07:44:52;;;;;;;15.88;11.90;;;;;;;;;;5009383;28;20117;-74
2022/08/25 07:47:17;;;;;;;20.38;12.35;;;;;;;;;;5017180;28;20100;-77
2022/08/25 07:49:43;;;;;;;15.35;12.52;;;;;;;;;;5010761;28;21156;-76
2022/08/25 07:52:08;;;;;;;18.83;12.32;;;;;;;;;;5009394;28;20041;-75
2022/08/25 07:54:34;;;;;;;17.08;12.20;;;;;;;;;;5010989;28;20056;-73
2022/08/25 07:57:00;;;;;;;15.50;11.60;;;;;;;;;;5011779;28;20021;-73
2022/08/25 07:59:25;;;;;;;18.52;11.18;;;;;;;;;;5012686;28;20087;-74
2022/08/25 08:01:50;;;;;;;17.10;11.30;;;;;;;;;;5008755;28;20114;-73
2022/08/25 08:04:16;;;;;;;17.33;11.05;;;;;;;;;;5010430;28;20112;-73
2022/08/25 08:06:41;;;;;;;18.23;11.40;;;;;;;;;;5010039;28;20032;-77
2022/08/25 08:09:07;;;;;;;18.58;11.10;;;;;;;;;;4992800;28;20030;-74
2022/08/25 08:11:33;;;;;;;15.63;10.60;;;;;;;;;;5009879;28;20025;-73
2022/08/25 08:13:58;;;;;;;17.35;9.30;;;;;;;;;;5007779;28;20018;-74
2022/08/25 08:16:25;;;;;;;17.73;10.15;;;;;;;;;;5009200;28;20029;-74
2022/08/25 08:18:51;;;;;;;13.50;9.52;;;;;;;;;;5009291;28;20025;-73
2022/08/25 08:21:21;;;;;;;19.73;10.23;;;;;;;;;;5011247;28;20033;-75
2022/08/25 08:23:47;;;;;;;18.27;9.70;;;;;;;;;;5015061;28;20223;-73
2022/08/25 08:26:13;;;;;;;13.43;9.23;;;;;;;;;;5009811;28;20024;-74
2022/08/25 08:28:38;;;;;;;17.65;9.32;;;;;;;;;;5012471;28;20021;-76
2022/08/25 08:31:04;;;;;;;18.50;9.68;;;;;;;;;;5010258;28;20457;-76
2022/08/25 08:33:30;;;;;;;16.65;8.77;;;;;;;;;;5009512;28;20029;-74
2022/08/25 08:36:00;;;;;;;14.50;9.48;;;;;;;;;;5011204;28;20021;-75
2022/08/25 08:38:25;;;;;;;16.38;9.32;;;;;;;;;;5009306;28;20033;-74
2022/08/25 08:44:27;;;;;;;13.15;8.32;;;;;;;;;;5008966;28;20463;-73
2022/08/25 08:47:02;;;;;;;16.33;8.27;;;;;;;;;;4997114;28;20037;-75
2022/08/25 08:49:50;;;;;;;13.65;7.90;;;;;;;;;;5009957;28;20364;-74
2022/08/25 08:52:18;;;;;;;15.57;7.15;;;;;;;;;;5008840;28;20037;-75
2022/08/25 08:54:45;;;;;;;22.20;7.43;;;;;;;;;;5019007;28;20037;-75
2022/08/25 08:57:15;;;;;;;19.02;7.55;;;;;;;;;;5011029;28;20041;-74
2022/08/25 08:59:46;;;;;;;15.63;7.38;;;;;;;;;;5010723;28;20021;-75
2022/08/25 09:02:15;;;;;;;15.45;7.65;;;;;;;;;;5011264;28;20034;-74
2022/08/25 09:05:00;;;;;;;25.17;7.05;;;;;;;;;;5020218;28;20026;-78
2022/08/25 09:07:32;;;;;;;19.35;6.88;;;;;;;;;;5013206;28;20453;-73
2022/08/25 09:09:57;;;;;;;16.77;7.03;;;;;;;;;;5022822;28;20033;-75
2022/08/25 09:12:42;;;;;;;13.88;5.95;;;;;;;;;;5023794;28;20052;-73
2022/08/25 09:15:13;;;;;;;15.38;6.18;;;;;;;;;;5024004;28;20091;-73
2022/08/25 09:17:42;;;;;;;18.45;6.18;;;;;;;;;;5024263;28;20029;-75
2022/08/25 09:20:19;;;;;;;20.95;6.07;;;;;;;;;;5021484;28;20064;-75
2022/08/25 09:22:57;;;;;;;17.52;6.20;;;;;;;;;;5022734;28;20752;-74
2022/08/25 09:25:29;;;;;;;20.92;6.35;;;;;;;;;;5021004;28;20017;-75
2022/08/25 09:27:54;;;;;;;19.70;5.88;;;;;;;;;;5020569;28;20021;-75
2022/08/25 09:30:21;;;;;;;19.83;5.20;;;;;;;;;;5023493;28;20023;-75
2022/08/25 09:32:46;;;;;;;21.33;5.78;;;;;;;;;;5022660;28;20169;-73
2022/08/25 09:35:25;;;;;;;17.98;5.13;;;;;;;;;;5021605;28;20026;-77
2022/08/25 09:37:54;;;;;;;18.05;6.10;;;;;;;;;;5022366;28;20117;-73
2022/08/25 09:40:20;;;;;;;20.73;5.95;;;;;;;;;;5020265;28;20100;-74
2022/08/25 09:42:50;;;;;;;19.00;5.35;;;;;;;;;;5020327;28;20067;-75
2022/08/25 09:45:15;;;;;;;17.05;5.60;;;;;;;;;;5022260;28;20040;-75
2022/08/25 09:47:42;;;;;;;22.40;6.03;;;;;;;;;;5020625;28;20025;-74
2022/08/25 09:50:13;;;;;;;25.60;6.03;;;;;;;;;;5021258;28;20025;-74
2022/08/25 09:52:41;;;;;;;21.75;5.50;;;;;;;;;;5022554;28;20061;-74
2022/08/25 09:55:12;;;;;;;24.50;5.55;;;;;;;;;;5022615;28;20399;-74
2022/08/25 09:57:48;;;;;;;32.92;6.45;;;;;;;;;;5022187;28;20025;-79
2022/08/25 10:00:17;;;;;;;16.83;5.63;;;;;;;;;;5022100;28;20036;-78
2022/08/25 10:02:43;;;;;;;20.92;5.50;;;;;;;;;;5022019;28;20163;-75
2022/08/25 10:05:16;;;;;;;24.02;5.75;;;;;;;;;;5021279;28;20068;-76
2022/08/25 10:07:48;;;;;;;19.23;5.30;;;;;;;;;;5022260;28;20034;-74
2022/08/25 10:10:21;;;;;;;21.33;5.57;;;;;;;;;;5024682;28;20064;-75
2022/08/25 10:12:46;;;;;;;28.35;5.95;;;;;;;;;;5002986;28;20044;-75
2022/08/25 10:15:16;;;;;;;19.65;4.60;;;;;;;;;;5021523;28;20029;-75
2022/08/25 10:17:42;;;;;;;18.10;5.43;;;;;;;;;;5020423;28;20040;-74
2022/08/25 10:20:10;;;;;;;21.55;6.22;;;;;;;;;;5020133;28;20029;-75
2022/08/25 10:22:39;;;;;;;23.27;5.72;;;;;;;;;;5021771;28;20167;-74
2022/08/25 10:25:07;;;;;;;37.20;6.82;;;;;;;;;;5022185;28;20037;-76
2022/08/25 10:27:39;;;;;;;25.83;5.83;;;;;;;;;;5021696;28;20025;-74
2022/08/25 10:30:24;;;;;;;27.05;5.30;;;;;;;;;;5021831;28;20033;-75
2022/08/25 10:32:55;;;;;;;32.13;5.53;;;;;;;;;;5020163;28;20017;-74
2022/08/25 10:35:28;;;;;;;16.38;5.20;;;;;;;;;;5019460;28;20065;-75
2022/08/25 10:38:07;;;;;;;27.38;5.10;;;;;;;;;;5021305;28;20032;-79
2022/08/25 10:40:39;;;;;;;30.83;5.88;;;;;;;;;;5023466;28;20112;-76
2022/08/25 10:43:05;;;;;;;27.38;5.55;;;;;;;;;;5023368;28;20381;-77
2022/08/25 10:45:41;;;;;;;39.92;6.63;;;;;;;;;;5024412;28;20060;-78
2022/08/25 10:48:24;;;;;;;31.50;5.38;;;;;;;;;;5023552;28;20059;-79
2022/08/25 10:50:52;;;;;;;29.10;5.80;;;;;;;;;;5019688;28;20034;-78
2022/08/25 10:53:18;;;;;;;27.83;5.03;;;;;;;;;;5020000;28;20033;-75
2022/08/25 10:56:04;;;;;;;30.58;5.50;;;;;;;;;;5021622;28;20096;-78
2022/08/25 10:58:48;;;;;;;23.48;5.32;;;;;;;;;;5016641;28;20060;-76
2022/08/25 11:01:28;;;;;;;30.25;4.72;;;;;;;;;;5013783;28;20453;-77
2022/08/25 11:03:57;;;;;;;22.08;4.65;;;;;;;;;;5021003;28;20021;-75
2022/08/25 11:06:26;;;;;;;27.83;5.40;;;;;;;;;;5018749;28;20942;-76
2022/08/25 11:08:58;;;;;;;29.33;5.00;;;;;;;;;;5020206;28;20539;-76
2022/08/25 11:11:26;;;;;;;32.35;6.07;;;;;;;;;;5019621;28;20052;-76
2022/08/25 11:13:52;;;;;;;29.85;5.47;;;;;;;;;;5018318;28;20083;-78
2022/08/25 11:16:20;;;;;;;28.13;5.45;;;;;;;;;;5008103;28;20033;-78
2022/08/25 11:18:51;;;;;;;36.63;5.65;;;;;;;;;;5008603;28;20075;-75
2022/08/25 11:21:32;;;;;;;36.45;5.60;;;;;;;;;;5007607;28;20125;-76
2022/08/25 11:23:57;;;;;;;27.20;5.18;;;;;;;;;;4990001;28;20033;-76
2022/08/25 11:26:32;;;;;;;33.83;6.25;;;;;;;;;;5012134;28;20052;-76
2022/08/25 11:29:17;;;;;;;24.98;4.95;;;;;;;;;;5012581;28;20033;-77
2022/08/25 11:31:44;;;;;;;22.65;4.75;;;;;;;;;;5012177;28;21271;-78
2022/08/25 11:34:13;;;;;;;24.58;4.80;;;;;;;;;;5013212;28;20033;-76
2022/08/25 11:36:40;;;;;;;35.03;6.35;;;;;;;;;;5011331;28;20057;-76
2022/08/25 11:39:15;;;;;;;27.95;4.75;;;;;;;;;;5011214;28;20049;-75
2022/08/25 11:41:43;;;;;;;34.78;5.50;;;;;;;;;;5010217;28;20041;-76
2022/08/25 11:44:15;;;;;;;25.83;5.93;;;;;;;;;;5014159;28;20026;-75
2022/08/25 11:46:40;;;;;;;29.35;5.65;;;;;;;;;;5011241;28;20030;-75
2022/08/25 11:49:15;;;;;;;24.25;4.82;;;;;;;;;;5011207;28;20031;-76
2022/08/25 11:51:42;;;;;;;26.23;5.22;;;;;;;;;;5015525;28;20076;-76
2022/08/25 11:54:34;;;;;;;25.05;5.40;;;;;;;;;;5023284;28;20033;-77
2022/08/25 11:57:01;;;;;;;20.05;4.80;;;;;;;;;;4982196;28;20141;-74
2022/08/25 11:59:44;;;;;;;24.75;5.57;;;;;;;;;;4982077;28;20040;-78
2022/08/25 12:02:30;;;;;;;24.25;5.03;;;;;;;;;;4983830;28;20125;-77
2022/08/25 12:04:56;;;;;;;19.88;5.18;;;;;;;;;;4982001;28;20496;-76
2022/08/25 12:07:23;;;;;;;23.67;4.88;;;;;;;;;;4982340;28;20046;-75
2022/08/25 12:09:48;;;;;;;26.23;5.65;;;;;;;;;;4976789;28;20026;-75
2022/08/25 12:12:26;;;;;;;21.77;5.03;;;;;;;;;;4968687;28;20049;-77
2022/08/25 12:14:51;;;;;;;25.48;5.00;;;;;;;;;;4981253;28;20263;-78
2022/08/25 12:17:21;;;;;;;26.70;5.40;;;;;;;;;;4982807;28;20087;-78
2022/08/25 12:19:48;;;;;;;28.92;5.55;;;;;;;;;;4982035;28;20034;-75
2022/08/25 12:22:13;;;;;;;25.27;5.05;;;;;;;;;;4981345;28;20476;-76
2022/08/25 12:24:41;;;;;;;24.67;4.90;;;;;;;;;;4981454;28;20073;-78
2022/08/25 12:27:25;;;;;;;28.05;5.80;;;;;;;;;;4981995;28;20267;-77
2022/08/25 12:29:53;;;;;;;24.23;4.82;;;;;;;;;;4982355;28;20089;-75
2022/08/25 12:32:32;;;;;;;21.75;5.35;;;;;;;;;;4981702;28;20042;-77
2022/08/25 12:34:57;;;;;;;22.67;4.93;;;;;;;;;;5022179;28;20030;-75
2022/08/25 12:37:23;;;;;;;23.90;5.57;;;;;;;;;;5020314;28;20344;-75
2022/08/25 12:39:49;;;;;;;33.75;5.90;;;;;;;;;;5010892;28;20723;-76
2022/08/25 12:42:22;;;;;;;28.27;5.20;;;;;;;;;;5009333;28;20120;-76
2022/08/25 12:44:47;;;;;;;33.45;5.75;;;;;;;;;;5021658;28;20105;-75
2022/08/25 12:47:12;;;;;;;32.65;5.22;;;;;;;;;;5022559;28;20408;-75
2022/08/25 12:49:38;;;;;;;29.85;5.38;;;;;;;;;;5022826;28;20030;-75
2022/08/25 12:52:03;;;;;;;24.38;5.05;;;;;;;;;;5012872;28;20029;-76
2022/08/25 12:54:35;;;;;;;25.13;4.18;;;;;;;;;;5017712;28;20036;-75
2022/08/25 12:57:02;;;;;;;28.10;5.40;;;;;;;;;;5017565;28;20100;-76
2022/08/25 12:59:35;;;;;;;29.58;4.50;;;;;;;;;;5023076;28;20033;-75
2022/08/25 13:02:13;;;;;;;32.88;5.38;;;;;;;;;;5022282;28;20369;-75
2022/08/25 13:04:57;;;;;;;28.70;4.90;;;;;;;;;;5021507;28;20033;-75
2022/08/25 13:07:27;;;;;;;37.25;5.88;;;;;;;;;;5019488;28;20412;-75
2022/08/25 13:10:09;;;;;;;42.17;5.13;;;;;;;;;;5021381;28;20095;-76
2022/08/25 13:12:53;;;;;;;37.03;5.50;;;;;;;;;;5020992;28;20055;-75
2022/08/25 13:15:28;;;;;;;25.13;5.43;;;;;;;;;;5021715;28;20033;-77
2022/08/25 13:17:53;;;;;;;25.63;5.13;;;;;;;;;;5020826;28;20021;-76
2022/08/25 13:20:28;;;;;;;37.03;5.60;;;;;;;;;;5021826;28;20037;-77
2022/08/25 13:22:58;;;;;;;38.53;6.07;;;;;;;;;;5021025;28;20083;-76
2022/08/25 13:25:25;;;;;;;32.35;4.65;;;;;;;;;;5022840;28;20030;-75
2022/08/25 13:27:55;;;;;;;43.22;6.22;;;;;;;;;;5022029;28;20029;-76
2022/08/25 13:30:26;;;;;;;34.45;5.40;;;;;;;;;;5022264;28;20063;-78
2022/08/25 13:32:52;;;;;;;31.50;5.38;;;;;;;;;;5022646;28;20116;-76
2022/08/25 13:35:17;;;;;;;24.33;4.38;;;;;;;;;;5024436;28;20390;-76
2022/08/25 13:37:42;;;;;;;20.07;4.17;;;;;;;;;;5023775;28;20087;-78
2022/08/25 13:40:08;;;;;;;19.10;4.05;;;;;;;;;;5022125;28;21602;-77
2022/08/25 13:42:35;;;;;;;16.55;3.70;;;;;;;;;;5020829;28;20073;-77
2022/08/25 13:45:01;;;;;;;18.20;3.67;;;;;;;;;;5020560;28;20028;-76
2022/08/25 13:47:39;;;;;;;18.25;3.30;;;;;;;;;;5021653;28;20029;-78
2022/08/25 13:50:14;;;;;;;14.05;3.50;;;;;;;;;;5021415;28;20147;-77
2022/08/25 13:52:39;;;;;;;20.13;3.90;;;;;;;;;;5021135;28;20040;-76
2022/08/25 13:55:05;;;;;;;11.70;3.22;;;;;;;;;;5012706;28;20021;-75
2022/08/25 13:57:32;;;;;;;12.50;3.30;;;;;;;;;;5009266;28;20120;-75
2022/08/25 14:00:04;;;;;;;11.43;3.05;;;;;;;;;;5007976;28;20144;-76
2022/08/25 14:02:49;;;;;;;18.25;3.78;;;;;;;;;;5008827;28;20120;-75
2022/08/25 14:05:16;;;;;;;21.38;3.70;;;;;;;;;;5008398;28;20025;-75
2022/08/25 14:07:51;;;;;;;26.60;3.38;;;;;;;;;;5005925;28;20049;-75
2022/08/25 14:10:31;;;;;;;19.25;3.35;;;;;;;;;;5008570;28;20022;-77
2022/08/25 14:13:25;;;;;;;18.92;3.78;;;;;;;;;;5009362;28;20460;-74
2022/08/25 14:15:51;;;;;;;21.55;3.40;;;;;;;;;;5011448;28;20033;-75
2022/08/25 14:18:21;;;;;;;10.55;3.50;;;;;;;;;;5020412;28;20365;-77
2022/08/25 14:20:49;;;;;;;11.70;3.35;;;;;;;;;;5021872;28;20631;-74
2022/08/25 14:23:16;;;;;;;16.30;3.63;;;;;;;;;;5021886;28;20033;-76
2022/08/25 14:25:41;;;;;;;19.85;3.88;;;;;;;;;;5007707;28;20029;-77
2022/08/25 14:28:09;;;;;;;14.75;3.63;;;;;;;;;;5008118;28;20083;-75
2022/08/25 14:30:39;;;;;;;14.25;3.65;;;;;;;;;;5007983;28;20036;-76
2022/08/25 14:33:05;;;;;;;19.33;4.22;;;;;;;;;;5006313;28;20045;-77
2022/08/25 14:35:30;;;;;;;16.40;3.88;;;;;;;;;;5006353;28;20434;-74
2022/08/25 14:37:56;;;;;;;15.48;3.42;;;;;;;;;;5008037;28;20029;-77
2022/08/25 14:40:21;;;;;;;16.25;3.30;;;;;;;;;;5006695;28;20052;-77